Station Historical Data
Daily Summary for July 19, 2017 Units:  Both    English   Metric
« Previous Day
Next Day »
Daily Weekly Monthly Yearly Custom
  High: Low: Average:
Temperature: 85.2 °F /  29.6 °C 61.5 °F /  16.4 °C 74.1 °F /  23.4 °C
Dew Point: 71.5 °F /  21.9 °C 56.8 °F /  13.8 °C 65 °F /  18.3 °C
Humidity: 88% 61% 74%
Wind Speed: 11.0mph /  17.7km/h - 2.9mph /  4.7km/h
Wind Gust: 16.0mph /  25.7km/h - -
Wind- - SW
Pressure: 30.05 in /  1017.5 hPa 29.97 in /  1014.8 hPa -
Precipitation: 0.00 in /  0 mm    
Historical Graphs
 
 
Tabular Data for July 19, 2017
Time Temperature Dew Point Pressure Wind Wind Speed Wind Gust Humidity Rainfall Rate (Hourly)
00:04 65.9 °F /  18.8 °C 57.7 °F /  14.3 °C 30.05in /  1017.5hPa Calm     75% 0.00in /  0mm
00:09 65.7 °F /  18.7 °C 57.6 °F /  14.2 °C 30.05in /  1017.5hPa Calm     75% 0.00in /  0mm
00:14 65.3 °F /  18.5 °C 57.5 °F /  14.2 °C 30.05in /  1017.5hPa Calm     76% 0.00in /  0mm
00:19 65.0 °F /  18.3 °C 57.6 °F /  14.2 °C 30.05in /  1017.5hPa Calm     77% 0.00in /  0mm
00:24 64.9 °F /  18.3 °C 57.5 °F /  14.2 °C 30.05in /  1017.5hPa Calm     77% 0.00in /  0mm
00:29 64.9 °F /  18.3 °C 57.5 °F /  14.2 °C 30.05in /  1017.5hPa Calm     77% 0.00in /  0mm
00:34 64.5 °F /  18.1 °C 57.5 °F /  14.2 °C 30.05in /  1017.5hPa Calm     78% 0.00in /  0mm
00:39 64.3 °F /  17.9 °C 57.6 °F /  14.2 °C 30.05in /  1017.5hPa Calm     79% 0.00in /  0mm
00:44 64.0 °F /  17.8 °C 57.4 °F /  14.1 °C 30.05in /  1017.5hPa Calm     79% 0.00in /  0mm
00:49 63.9 °F /  17.7 °C 57.6 °F /  14.2 °C 30.05in /  1017.5hPa Calm     80% 0.00in /  0mm
00:54 63.8 °F /  17.7 °C 57.9 °F /  14.4 °C 30.05in /  1017.5hPa Calm     81% 0.00in /  0mm
00:59 63.7 °F /  17.6 °C 57.8 °F /  14.3 °C 30.05in /  1017.5hPa Calm     81% 0.00in /  0mm
01:04 63.8 °F /  17.7 °C 57.9 °F /  14.4 °C 30.05in /  1017.5hPa Calm     81% 0.00in /  0mm
01:09 63.9 °F /  17.7 °C 58.0 °F /  14.4 °C 30.05in /  1017.5hPa Calm   3.0mph /  4.8km/h 81% 0.00in /  0mm
01:14 64.0 °F /  17.8 °C 57.7 °F /  14.3 °C 30.05in /  1017.5hPa Calm   3.0mph /  4.8km/h 80% 0.00in /  0mm
01:19 64.0 °F /  17.8 °C 57.7 °F /  14.3 °C 30.05in /  1017.5hPa Calm     80% 0.00in /  0mm
01:24 64.0 °F /  17.8 °C 57.7 °F /  14.3 °C 30.05in /  1017.5hPa Calm     80% 0.00in /  0mm
01:29 64.0 °F /  17.8 °C 57.7 °F /  14.3 °C 30.05in /  1017.5hPa Calm     80% 0.00in /  0mm
01:34 63.8 °F /  17.7 °C 57.5 °F /  14.2 °C 30.05in /  1017.5hPa Calm     80% 0.00in /  0mm
01:39 63.7 °F /  17.6 °C 57.4 °F /  14.1 °C 30.05in /  1017.5hPa Calm     80% 0.00in /  0mm
01:44 63.5 °F /  17.5 °C 57.2 °F /  14 °C 30.05in /  1017.5hPa Calm     80% 0.00in /  0mm
01:49 63.4 °F /  17.4 °C 57.5 °F /  14.2 °C 30.05in /  1017.5hPa Calm     81% 0.00in /  0mm
01:54 63.3 °F /  17.4 °C 57.4 °F /  14.1 °C 30.05in /  1017.5hPa Calm   1.0mph /  1.6km/h 81% 0.00in /  0mm
01:59 63.2 °F /  17.3 °C 57.3 °F /  14.1 °C 30.04in /  1017.2hPa Calm   1.0mph /  1.6km/h 81% 0.00in /  0mm
02:04 63.2 °F /  17.3 °C 57.3 °F /  14.1 °C 30.05in /  1017.5hPa Calm     81% 0.00in /  0mm
02:09 63.0 °F /  17.2 °C 57.1 °F /  13.9 °C 30.04in /  1017.2hPa Calm     81% 0.00in /  0mm
02:14 62.9 °F /  17.2 °C 57.0 °F /  13.9 °C 30.04in /  1017.2hPa Calm     81% 0.00in /  0mm
02:19 62.9 °F /  17.2 °C 57.0 °F /  13.9 °C 30.04in /  1017.2hPa Calm     81% 0.00in /  0mm
02:24 62.9 °F /  17.2 °C 57.0 °F /  13.9 °C 30.04in /  1017.2hPa Calm     81% 0.00in /  0mm
02:29 62.7 °F /  17.1 °C 57.1 °F /  13.9 °C 30.03in /  1016.8hPa Calm     82% 0.00in /  0mm
02:34 62.6 °F /  17 °C 57.0 °F /  13.9 °C 30.03in /  1016.8hPa Calm     82% 0.00in /  0mm
02:39 62.6 °F /  17 °C 57.0 °F /  13.9 °C 30.03in /  1016.8hPa Calm   1.0mph /  1.6km/h 82% 0.00in /  0mm
02:44 62.6 °F /  17 °C 57.0 °F /  13.9 °C 30.03in /  1016.8hPa Calm   2.0mph /  3.2km/h 82% 0.00in /  0mm
02:49 62.8 °F /  17.1 °C 57.2 °F /  14 °C 30.03in /  1016.8hPa Calm     82% 0.00in /  0mm
02:54 62.7 °F /  17.1 °C 56.8 °F /  13.8 °C 30.03in /  1016.8hPa Calm     81% 0.00in /  0mm
02:59 62.7 °F /  17.1 °C 57.1 °F /  13.9 °C 30.03in /  1016.8hPa Calm     82% 0.00in /  0mm
03:04 62.7 °F /  17.1 °C 57.1 °F /  13.9 °C 30.03in /  1016.8hPa Calm     82% 0.00in /  0mm
03:09 62.6 °F /  17 °C 57.0 °F /  13.9 °C 30.03in /  1016.8hPa Calm     82% 0.00in /  0mm
03:14 62.5 °F /  16.9 °C 56.9 °F /  13.8 °C 30.03in /  1016.8hPa Calm     82% 0.00in /  0mm
03:19 62.4 °F /  16.9 °C 57.2 °F /  14 °C 30.03in /  1016.8hPa Calm     83% 0.00in /  0mm
03:24 62.4 °F /  16.9 °C 56.8 °F /  13.8 °C 30.02in /  1016.5hPa Calm     82% 0.00in /  0mm
03:29 62.3 °F /  16.8 °C 57.1 °F /  13.9 °C 30.02in /  1016.5hPa Calm     83% 0.00in /  0mm
03:34 62.2 °F /  16.8 °C 57.0 °F /  13.9 °C 30.02in /  1016.5hPa Calm     83% 0.00in /  0mm
03:39 62.2 °F /  16.8 °C 57.0 °F /  13.9 °C 30.03in /  1016.8hPa Calm     83% 0.00in /  0mm
03:44 62.2 °F /  16.8 °C 57.3 °F /  14.1 °C 30.03in /  1016.8hPa Calm     84% 0.00in /  0mm
03:49 62.2 °F /  16.8 °C 57.3 °F /  14.1 °C 30.02in /  1016.5hPa Calm     84% 0.00in /  0mm
03:54 62.1 °F /  16.7 °C 57.2 °F /  14 °C 30.03in /  1016.8hPa Calm     84% 0.00in /  0mm
03:59 62.1 °F /  16.7 °C 57.2 °F /  14 °C 30.03in /  1016.8hPa Calm     84% 0.00in /  0mm
04:04 62.3 °F /  16.8 °C 57.4 °F /  14.1 °C 30.03in /  1016.8hPa Calm     84% 0.00in /  0mm
04:09 62.0 °F /  16.7 °C 57.1 °F /  13.9 °C 30.02in /  1016.5hPa Calm     84% 0.00in /  0mm
04:14 61.9 °F /  16.6 °C 57.0 °F /  13.9 °C 30.02in /  1016.5hPa Calm     84% 0.00in /  0mm
04:19 61.7 °F /  16.5 °C 56.8 °F /  13.8 °C 30.03in /  1016.8hPa Calm     84% 0.00in /  0mm
04:24 61.7 °F /  16.5 °C 57.1 °F /  13.9 °C 30.03in /  1016.8hPa Calm     85% 0.00in /  0mm
04:29 61.9 °F /  16.6 °C 57.3 °F /  14.1 °C 30.03in /  1016.8hPa Calm     85% 0.00in /  0mm
04:34 62.0 °F /  16.7 °C 57.1 °F /  13.9 °C 30.03in /  1016.8hPa Calm     84% 0.00in /  0mm
04:39 61.7 °F /  16.5 °C 56.8 °F /  13.8 °C 30.03in /  1016.8hPa Calm     84% 0.00in /  0mm
04:44 61.7 °F /  16.5 °C 57.1 °F /  13.9 °C 30.03in /  1016.8hPa Calm     85% 0.00in /  0mm
04:49 61.6 °F /  16.4 °C 57.0 °F /  13.9 °C 30.03in /  1016.8hPa Calm     85% 0.00in /  0mm
04:54 61.7 °F /  16.5 °C 57.1 °F /  13.9 °C 30.03in /  1016.8hPa Calm     85% 0.00in /  0mm
04:59 61.8 °F /  16.6 °C 57.2 °F /  14 °C 30.03in /  1016.8hPa Calm     85% 0.00in /  0mm
05:04 61.8 °F /  16.6 °C 57.2 °F /  14 °C 30.03in /  1016.8hPa Calm     85% 0.00in /  0mm
05:09 61.6 °F /  16.4 °C 57.0 °F /  13.9 °C 30.03in /  1016.8hPa Calm     85% 0.00in /  0mm
05:14 61.5 °F /  16.4 °C 56.9 °F /  13.8 °C 30.03in /  1016.8hPa Calm     85% 0.00in /  0mm
05:19 61.5 °F /  16.4 °C 56.9 °F /  13.8 °C 30.03in /  1016.8hPa Calm     85% 0.00in /  0mm
05:24 61.6 °F /  16.4 °C 57.0 °F /  13.9 °C 30.03in /  1016.8hPa Calm     85% 0.00in /  0mm
05:29 61.7 °F /  16.5 °C 57.1 °F /  13.9 °C 30.03in /  1016.8hPa Calm   2.0mph /  3.2km/h 85% 0.00in /  0mm
05:34 61.7 °F /  16.5 °C 57.1 °F /  13.9 °C 30.03in /  1016.8hPa Calm     85% 0.00in /  0mm
05:39 62.1 °F /  16.7 °C 57.5 °F /  14.2 °C 30.03in /  1016.8hPa Calm     85% 0.00in /  0mm
05:44 62.2 °F /  16.8 °C 57.3 °F /  14.1 °C 30.02in /  1016.5hPa Calm   3.0mph /  4.8km/h 84% 0.00in /  0mm
05:49 62.4 °F /  16.9 °C 57.2 °F /  14 °C 30.02in /  1016.5hPa South 1.0mph /  1.6km/h 3.0mph /  4.8km/h 83% 0.00in /  0mm
05:54 62.4 °F /  16.9 °C 57.2 °F /  14 °C 30.03in /  1016.8hPa Calm   2.0mph /  3.2km/h 83% 0.00in /  0mm
05:59 62.5 °F /  16.9 °C 57.3 °F /  14.1 °C 30.03in /  1016.8hPa Calm     83% 0.00in /  0mm
06:04 62.5 °F /  16.9 °C 57.3 °F /  14.1 °C 30.03in /  1016.8hPa Calm     83% 0.00in /  0mm
06:09 62.2 °F /  16.8 °C 57.0 °F /  13.9 °C 30.03in /  1016.8hPa Calm     83% 0.00in /  0mm
06:14 62.1 °F /  16.7 °C 57.2 °F /  14 °C 30.03in /  1016.8hPa Calm     84% 0.00in /  0mm
06:19 62.5 °F /  16.9 °C 57.3 °F /  14.1 °C 30.03in /  1016.8hPa Calm     83% 0.00in /  0mm
06:24 62.6 °F /  17 °C 57.4 °F /  14.1 °C 30.03in /  1016.8hPa Calm     83% 0.00in /  0mm
06:29 62.9 °F /  17.2 °C 57.7 °F /  14.3 °C 30.03in /  1016.8hPa South 2.0mph /  3.2km/h 3.0mph /  4.8km/h 83% 0.00in /  0mm
06:34 63.2 °F /  17.3 °C 57.6 °F /  14.2 °C 30.03in /  1016.8hPa South 1.0mph /  1.6km/h 3.0mph /  4.8km/h 82% 0.00in /  0mm
06:39 63.6 °F /  17.6 °C 57.7 °F /  14.3 °C 30.03in /  1016.8hPa South 1.0mph /  1.6km/h 2.0mph /  3.2km/h 81% 0.00in /  0mm
06:44 64.0 °F /  17.8 °C 58.1 °F /  14.5 °C 30.03in /  1016.8hPa South 1.0mph /  1.6km/h 2.0mph /  3.2km/h 81% 0.00in /  0mm
06:49 64.3 °F /  17.9 °C 58.0 °F /  14.4 °C 30.03in /  1016.8hPa South 1.0mph /  1.6km/h 2.0mph /  3.2km/h 80% 0.00in /  0mm
06:54 64.7 °F /  18.2 °C 58.4 °F /  14.7 °C 30.03in /  1016.8hPa Calm   2.0mph /  3.2km/h 80% 0.00in /  0mm
06:59 65.1 °F /  18.4 °C 58.4 °F /  14.7 °C 30.03in /  1016.8hPa Calm     79% 0.00in /  0mm
07:04 65.6 °F /  18.7 °C 58.9 °F /  14.9 °C 30.03in /  1016.8hPa SSW 2.0mph /  3.2km/h 3.0mph /  4.8km/h 79% 0.00in /  0mm
07:09 65.9 °F /  18.8 °C 58.8 °F /  14.9 °C 30.03in /  1016.8hPa Calm   4.0mph /  6.4km/h 78% 0.00in /  0mm
07:14 66.3 °F /  19.1 °C 58.9 °F /  14.9 °C 30.03in /  1016.8hPa South 2.0mph /  3.2km/h 3.0mph /  4.8km/h 77% 0.00in /  0mm
07:19 66.6 °F /  19.2 °C 59.2 °F /  15.1 °C 30.03in /  1016.8hPa Calm   4.0mph /  6.4km/h 77% 0.00in /  0mm
07:24 67.0 °F /  19.4 °C 59.2 °F /  15.1 °C 30.04in /  1017.2hPa Calm   4.0mph /  6.4km/h 76% 0.00in /  0mm
07:29 67.5 °F /  19.7 °C 59.3 °F /  15.2 °C 30.04in /  1017.2hPa SSW 1.0mph /  1.6km/h 3.0mph /  4.8km/h 75% 0.00in /  0mm
07:34 68.0 °F /  20 °C 59.8 °F /  15.4 °C 30.04in /  1017.2hPa Calm   4.0mph /  6.4km/h 75% 0.00in /  0mm
07:39 68.3 °F /  20.2 °C 60.1 °F /  15.6 °C 30.04in /  1017.2hPa Calm   3.0mph /  4.8km/h 75% 0.00in /  0mm
07:44 68.5 °F /  20.3 °C 59.9 °F /  15.5 °C 30.04in /  1017.2hPa SW 1.0mph /  1.6km/h 3.0mph /  4.8km/h 74% 0.00in /  0mm
07:49 68.6 °F /  20.3 °C 60.0 °F /  15.6 °C 30.04in /  1017.2hPa Calm   3.0mph /  4.8km/h 74% 0.00in /  0mm
07:54 69.4 °F /  20.8 °C 60.8 °F /  16 °C 30.04in /  1017.2hPa SSW 1.0mph /  1.6km/h 3.0mph /  4.8km/h 74% 0.00in /  0mm
07:59 69.9 °F /  21.1 °C 60.8 °F /  16 °C 30.04in /  1017.2hPa SSW 1.0mph /  1.6km/h 4.0mph /  6.4km/h 73% 0.00in /  0mm
08:04 70.1 °F /  21.2 °C 60.7 °F /  15.9 °C 30.04in /  1017.2hPa SSW 1.0mph /  1.6km/h 5.0mph /  8km/h 72% 0.00in /  0mm
08:09 70.7 °F /  21.5 °C 61.2 °F /  16.2 °C 30.04in /  1017.2hPa SSW 1.0mph /  1.6km/h 3.0mph /  4.8km/h 72% 0.00in /  0mm
08:14 71.1 °F /  21.7 °C 61.2 °F /  16.2 °C 30.03in /  1016.8hPa SSW 1.0mph /  1.6km/h 3.0mph /  4.8km/h 71% 0.00in /  0mm
08:19 71.2 °F /  21.8 °C 61.3 °F /  16.3 °C 30.03in /  1016.8hPa South 2.0mph /  3.2km/h 3.0mph /  4.8km/h 71% 0.00in /  0mm
08:24 71.4 °F /  21.9 °C 61.5 °F /  16.4 °C 30.03in /  1016.8hPa SSE 1.0mph /  1.6km/h 3.0mph /  4.8km/h 71% 0.00in /  0mm
08:29 71.4 °F /  21.9 °C 61.5 °F /  16.4 °C 30.03in /  1016.8hPa Calm   3.0mph /  4.8km/h 71% 0.00in /  0mm
08:34 71.5 °F /  21.9 °C 61.6 °F /  16.4 °C 30.03in /  1016.8hPa South 2.0mph /  3.2km/h 2.0mph /  3.2km/h 71% 0.00in /  0mm
08:39 71.7 °F /  22.1 °C 62.2 °F /  16.8 °C 30.03in /  1016.8hPa Calm   4.0mph /  6.4km/h 72% 0.00in /  0mm
08:44 71.9 °F /  22.2 °C 62.0 °F /  16.7 °C 30.03in /  1016.8hPa SSW 1.0mph /  1.6km/h 4.0mph /  6.4km/h 71% 0.00in /  0mm
08:49 72.0 °F /  22.2 °C 62.1 °F /  16.7 °C 30.03in /  1016.8hPa SSW 1.0mph /  1.6km/h 3.0mph /  4.8km/h 71% 0.00in /  0mm
08:54 72.3 °F /  22.4 °C 62.8 °F /  17.1 °C 30.03in /  1016.8hPa Calm     72% 0.00in /  0mm
08:59 72.6 °F /  22.6 °C 62.7 °F /  17.1 °C 30.03in /  1016.8hPa Calm     71% 0.00in /  0mm
09:04 72.8 °F /  22.7 °C 62.4 °F /  16.9 °C 30.03in /  1016.8hPa Calm     70% 0.00in /  0mm
09:09 73.1 °F /  22.8 °C 62.7 °F /  17.1 °C 30.03in /  1016.8hPa Calm     70% 0.00in /  0mm
09:14 73.3 °F /  22.9 °C 62.9 °F /  17.2 °C 30.03in /  1016.8hPa SSW 1.0mph /  1.6km/h 4.0mph /  6.4km/h 70% 0.00in /  0mm
09:19 73.8 °F /  23.2 °C 63.4 °F /  17.4 °C 30.03in /  1016.8hPa Calm   3.0mph /  4.8km/h 70% 0.00in /  0mm
09:24 75.0 °F /  23.9 °C 64.1 °F /  17.8 °C 30.03in /  1016.8hPa SW 2.0mph /  3.2km/h 5.0mph /  8km/h 69% 0.00in /  0mm
09:29 76.5 °F /  24.7 °C 64.7 °F /  18.2 °C 30.03in /  1016.8hPa SW 3.0mph /  4.8km/h 6.0mph /  9.7km/h 67% 0.00in /  0mm
09:34 77.3 °F /  25.2 °C 64.6 °F /  18.1 °C 30.03in /  1016.8hPa SSE 6.0mph /  9.7km/h 7.0mph /  11.3km/h 65% 0.00in /  0mm
09:39 78.1 °F /  25.6 °C 65.4 °F /  18.6 °C 30.03in /  1016.8hPa WSW 5.0mph /  8km/h 6.0mph /  9.7km/h 65% 0.00in /  0mm
09:44 78.9 °F /  26.1 °C 65.2 °F /  18.4 °C 30.03in /  1016.8hPa South 1.0mph /  1.6km/h 5.0mph /  8km/h 63% 0.00in /  0mm
09:49 79.1 °F /  26.2 °C 65.9 °F /  18.8 °C 30.03in /  1016.8hPa SW 3.0mph /  4.8km/h 6.0mph /  9.7km/h 64% 0.00in /  0mm
09:54 78.6 °F /  25.9 °C 65.8 °F /  18.8 °C 30.02in /  1016.5hPa SW 3.0mph /  4.8km/h 6.0mph /  9.7km/h 65% 0.00in /  0mm
09:59 79.0 °F /  26.1 °C 66.2 °F /  19 °C 30.02in /  1016.5hPa WSW 4.0mph /  6.4km/h 7.0mph /  11.3km/h 65% 0.00in /  0mm
10:04 80.0 °F /  26.7 °C 66.3 °F /  19.1 °C 30.02in /  1016.5hPa SW 3.0mph /  4.8km/h 8.0mph /  12.9km/h 63% 0.00in /  0mm
10:09 80.0 °F /  26.7 °C 66.3 °F /  19.1 °C 30.02in /  1016.5hPa SSW 2.0mph /  3.2km/h 7.0mph /  11.3km/h 63% 0.00in /  0mm
10:14 80.3 °F /  26.8 °C 66.1 °F /  18.9 °C 30.02in /  1016.5hPa SW 4.0mph /  6.4km/h 7.0mph /  11.3km/h 62% 0.00in /  0mm
10:19 80.9 °F /  27.2 °C 67.6 °F /  19.8 °C 30.02in /  1016.5hPa SW 4.0mph /  6.4km/h 8.0mph /  12.9km/h 64% 0.00in /  0mm
10:24 81.1 °F /  27.3 °C 66.8 °F /  19.3 °C 30.02in /  1016.5hPa SW 4.0mph /  6.4km/h 8.0mph /  12.9km/h 62% 0.00in /  0mm
10:29 81.4 °F /  27.4 °C 67.6 °F /  19.8 °C 30.02in /  1016.5hPa NW 4.0mph /  6.4km/h 8.0mph /  12.9km/h 63% 0.00in /  0mm
10:34 81.4 °F /  27.4 °C 66.7 °F /  19.3 °C 30.03in /  1016.8hPa SSW 6.0mph /  9.7km/h 8.0mph /  12.9km/h 61% 0.00in /  0mm
10:39 81.8 °F /  27.7 °C 67.0 °F /  19.4 °C 30.02in /  1016.5hPa WSW 3.0mph /  4.8km/h 8.0mph /  12.9km/h 61% 0.00in /  0mm
10:44 81.8 °F /  27.7 °C 67.5 °F /  19.7 °C 30.02in /  1016.5hPa SW 5.0mph /  8km/h 10.0mph /  16.1km/h 62% 0.00in /  0mm
10:49 82.5 °F /  28.1 °C 68.6 °F /  20.3 °C 30.02in /  1016.5hPa South 9.0mph /  14.5km/h 10.0mph /  16.1km/h 63% 0.00in /  0mm
10:54 82.3 °F /  27.9 °C 67.5 °F /  19.7 °C 30.02in /  1016.5hPa SW 5.0mph /  8km/h 10.0mph /  16.1km/h 61% 0.00in /  0mm
10:59 82.2 °F /  27.9 °C 67.9 °F /  19.9 °C 30.03in /  1016.8hPa SSW 4.0mph /  6.4km/h 9.0mph /  14.5km/h 62% 0.00in /  0mm
11:04 82.2 °F /  27.9 °C 67.9 °F /  19.9 °C 30.03in /  1016.8hPa WSW 6.0mph /  9.7km/h 13.0mph /  20.9km/h 62% 0.00in /  0mm
11:09 82.5 °F /  28.1 °C 68.2 °F /  20.1 °C 30.02in /  1016.5hPa WSW 8.0mph /  12.9km/h 12.0mph /  19.3km/h 62% 0.00in /  0mm
11:14 82.3 °F /  27.9 °C 68.4 °F /  20.2 °C 30.02in /  1016.5hPa WSW 5.0mph /  8km/h 12.0mph /  19.3km/h 63% 0.00in /  0mm
11:19 83.0 °F /  28.3 °C 68.6 °F /  20.3 °C 30.02in /  1016.5hPa WSW 5.0mph /  8km/h 11.0mph /  17.7km/h 62% 0.00in /  0mm
11:24 82.2 °F /  27.9 °C 68.3 °F /  20.2 °C 30.02in /  1016.5hPa WSW 5.0mph /  8km/h 10.0mph /  16.1km/h 63% 0.00in /  0mm
11:29 82.6 °F /  28.1 °C 68.7 °F /  20.4 °C 30.02in /  1016.5hPa WSW 5.0mph /  8km/h 13.0mph /  20.9km/h 63% 0.00in /  0mm
11:34 82.1 °F /  27.8 °C 68.7 °F /  20.4 °C 30.02in /  1016.5hPa WSW 6.0mph /  9.7km/h 13.0mph /  20.9km/h 64% 0.00in /  0mm
11:39 82.7 °F /  28.2 °C 69.3 °F /  20.7 °C 30.02in /  1016.5hPa WSW 6.0mph /  9.7km/h 12.0mph /  19.3km/h 64% 0.00in /  0mm
11:44 82.1 °F /  27.8 °C 68.7 °F /  20.4 °C 30.02in /  1016.5hPa SW 6.0mph /  9.7km/h 13.0mph /  20.9km/h 64% 0.00in /  0mm
11:49 82.2 °F /  27.9 °C 69.3 °F /  20.7 °C 30.02in /  1016.5hPa SW 5.0mph /  8km/h 10.0mph /  16.1km/h 65% 0.00in /  0mm
11:54 82.8 °F /  28.2 °C 68.9 °F /  20.5 °C 30.02in /  1016.5hPa WSW 5.0mph /  8km/h 10.0mph /  16.1km/h 63% 0.00in /  0mm
11:59 82.7 °F /  28.2 °C 69.3 °F /  20.7 °C 30.02in /  1016.5hPa WSW 5.0mph /  8km/h 10.0mph /  16.1km/h 64% 0.00in /  0mm
12:04 84.0 °F /  28.9 °C 70.5 °F /  21.4 °C 30.02in /  1016.5hPa SW 5.0mph /  8km/h 10.0mph /  16.1km/h 64% 0.00in /  0mm
12:09 83.9 °F /  28.8 °C 69.5 °F /  20.8 °C 30.02in /  1016.5hPa WSW 5.0mph /  8km/h 11.0mph /  17.7km/h 62% 0.00in /  0mm
12:14 83.3 °F /  28.5 °C 69.4 °F /  20.8 °C 30.02in /  1016.5hPa WSW 5.0mph /  8km/h 11.0mph /  17.7km/h 63% 0.00in /  0mm
12:19 82.9 °F /  28.3 °C 69.5 °F /  20.8 °C 30.02in /  1016.5hPa WSW 5.0mph /  8km/h 11.0mph /  17.7km/h 64% 0.00in /  0mm
12:24 82.1 °F /  27.8 °C 69.2 °F /  20.7 °C 30.02in /  1016.5hPa WSW 5.0mph /  8km/h 11.0mph /  17.7km/h 65% 0.00in /  0mm
12:29 81.8 °F /  27.7 °C 68.9 °F /  20.5 °C 30.02in /  1016.5hPa SW 6.0mph /  9.7km/h 14.0mph /  22.5km/h 65% 0.00in /  0mm
12:34 82.0 °F /  27.8 °C 69.1 °F /  20.6 °C 30.02in /  1016.5hPa SW 6.0mph /  9.7km/h 14.0mph /  22.5km/h 65% 0.00in /  0mm
12:39 81.5 °F /  27.5 °C 68.6 °F /  20.3 °C 30.02in /  1016.5hPa SSW 5.0mph /  8km/h 11.0mph /  17.7km/h 65% 0.00in /  0mm
12:44 81.6 °F /  27.6 °C 69.1 °F /  20.6 °C 30.03in /  1016.8hPa SW 5.0mph /  8km/h 11.0mph /  17.7km/h 66% 0.00in /  0mm
12:49 81.6 °F /  27.6 °C 69.1 °F /  20.6 °C 30.02in /  1016.5hPa WSW 2.0mph /  3.2km/h 10.0mph /  16.1km/h 66% 0.00in /  0mm
12:54 81.8 °F /  27.7 °C 69.3 °F /  20.7 °C 30.02in /  1016.5hPa SW 6.0mph /  9.7km/h 9.0mph /  14.5km/h 66% 0.00in /  0mm
12:59 82.1 °F /  27.8 °C 69.6 °F /  20.9 °C 30.02in /  1016.5hPa WSW 4.0mph /  6.4km/h 10.0mph /  16.1km/h 66% 0.00in /  0mm
13:04 82.7 °F /  28.2 °C 69.7 °F /  20.9 °C 30.02in /  1016.5hPa South 3.0mph /  4.8km/h 10.0mph /  16.1km/h 65% 0.00in /  0mm
13:09 82.7 °F /  28.2 °C 69.7 °F /  20.9 °C 30.02in /  1016.5hPa WSW 7.0mph /  11.3km/h 13.0mph /  20.9km/h 65% 0.00in /  0mm
13:14 82.6 °F /  28.1 °C 69.2 °F /  20.7 °C 30.02in /  1016.5hPa West 5.0mph /  8km/h 12.0mph /  19.3km/h 64% 0.00in /  0mm
13:19 82.2 °F /  27.9 °C 69.7 °F /  20.9 °C 30.02in /  1016.5hPa WSW 6.0mph /  9.7km/h 12.0mph /  19.3km/h 66% 0.00in /  0mm
13:24 81.6 °F /  27.6 °C 69.1 °F /  20.6 °C 30.02in /  1016.5hPa WSW 7.0mph /  11.3km/h 12.0mph /  19.3km/h 66% 0.00in /  0mm
13:29 81.8 °F /  27.7 °C 69.3 °F /  20.7 °C 30.02in /  1016.5hPa SW 6.0mph /  9.7km/h 12.0mph /  19.3km/h 66% 0.00in /  0mm
13:34 82.3 °F /  27.9 °C 69.8 °F /  21 °C 30.01in /  1016.1hPa SW 7.0mph /  11.3km/h 11.0mph /  17.7km/h 66% 0.00in /  0mm
13:39 82.7 °F /  28.2 °C 70.6 °F /  21.4 °C 30.02in /  1016.5hPa SW 4.0mph /  6.4km/h 10.0mph /  16.1km/h 67% 0.00in /  0mm
13:44 82.9 °F /  28.3 °C 70.8 °F /  21.6 °C 30.01in /  1016.1hPa West 4.0mph /  6.4km/h 11.0mph /  17.7km/h 67% 0.00in /  0mm
13:49 82.9 °F /  28.3 °C 70.4 °F /  21.3 °C 30.01in /  1016.1hPa SW 5.0mph /  8km/h 11.0mph /  17.7km/h 66% 0.00in /  0mm
13:54 82.8 °F /  28.2 °C 69.4 °F /  20.8 °C 30.01in /  1016.1hPa WSW 5.0mph /  8km/h 11.0mph /  17.7km/h 64% 0.00in /  0mm
13:59 82.2 °F /  27.9 °C 70.1 °F /  21.2 °C 30.01in /  1016.1hPa West 8.0mph /  12.9km/h 11.0mph /  17.7km/h 67% 0.00in /  0mm
14:04 82.4 °F /  28 °C 69.9 °F /  21.1 °C 30.01in /  1016.1hPa SW 8.0mph /  12.9km/h 9.0mph /  14.5km/h 66% 0.00in /  0mm
14:09 82.1 °F /  27.8 °C 69.2 °F /  20.7 °C 30.01in /  1016.1hPa WSW 4.0mph /  6.4km/h 13.0mph /  20.9km/h 65% 0.00in /  0mm
14:14 81.4 °F /  27.4 °C 69.4 °F /  20.8 °C 30.00in /  1015.8hPa WSW 6.0mph /  9.7km/h 13.0mph /  20.9km/h 67% 0.00in /  0mm
14:19 81.2 °F /  27.3 °C 69.6 °F /  20.9 °C 30.01in /  1016.1hPa SW 6.0mph /  9.7km/h 11.0mph /  17.7km/h 68% 0.00in /  0mm
14:24 81.4 °F /  27.4 °C 69.8 °F /  21 °C 30.00in /  1015.8hPa SW 6.0mph /  9.7km/h 11.0mph /  17.7km/h 68% 0.00in /  0mm
14:29 82.2 °F /  27.9 °C 70.1 °F /  21.2 °C 30.00in /  1015.8hPa West 5.0mph /  8km/h 15.0mph /  24.1km/h 67% 0.00in /  0mm
14:34 82.4 °F /  28 °C 69.9 °F /  21.1 °C 30.00in /  1015.8hPa West 4.0mph /  6.4km/h 12.0mph /  19.3km/h 66% 0.00in /  0mm
14:39 83.0 °F /  28.3 °C 70.5 °F /  21.4 °C 30.00in /  1015.8hPa WSW 8.0mph /  12.9km/h 14.0mph /  22.5km/h 66% 0.00in /  0mm
14:44 82.8 °F /  28.2 °C 70.7 °F /  21.5 °C 30.00in /  1015.8hPa WSW 5.0mph /  8km/h 14.0mph /  22.5km/h 67% 0.00in /  0mm
14:49 82.4 °F /  28 °C 69.9 °F /  21.1 °C 30.00in /  1015.8hPa WSW 6.0mph /  9.7km/h 11.0mph /  17.7km/h 66% 0.00in /  0mm
14:54 82.7 °F /  28.2 °C 71.1 °F /  21.7 °C 30.00in /  1015.8hPa WSW 6.0mph /  9.7km/h 11.0mph /  17.7km/h 68% 0.00in /  0mm
14:59 82.8 °F /  28.2 °C 70.3 °F /  21.3 °C 29.99in /  1015.5hPa WSW 6.0mph /  9.7km/h 12.0mph /  19.3km/h 66% 0.00in /  0mm
15:04 83.6 °F /  28.7 °C 71.0 °F /  21.7 °C 29.99in /  1015.5hPa WSW 6.0mph /  9.7km/h 13.0mph /  20.9km/h 66% 0.00in /  0mm
15:09 84.1 °F /  28.9 °C 71.1 °F /  21.7 °C 29.99in /  1015.5hPa SW 7.0mph /  11.3km/h 13.0mph /  20.9km/h 65% 0.00in /  0mm
15:14 84.2 °F /  29 °C 71.2 °F /  21.8 °C 29.99in /  1015.5hPa SW 6.0mph /  9.7km/h 12.0mph /  19.3km/h 65% 0.00in /  0mm
15:19 85.0 °F /  29.4 °C 71.5 °F /  21.9 °C 29.99in /  1015.5hPa SW 9.0mph /  14.5km/h 10.0mph /  16.1km/h 64% 0.00in /  0mm
15:24 84.8 °F /  29.3 °C 70.8 °F /  21.6 °C 29.99in /  1015.5hPa WSW 4.0mph /  6.4km/h 15.0mph /  24.1km/h 63% 0.00in /  0mm
15:29 84.5 °F /  29.2 °C 70.0 °F /  21.1 °C 29.99in /  1015.5hPa SW 9.0mph /  14.5km/h 13.0mph /  20.9km/h 62% 0.00in /  0mm
15:34 84.5 °F /  29.2 °C 70.0 °F /  21.1 °C 29.98in /  1015.1hPa SW 11.0mph /  17.7km/h 13.0mph /  20.9km/h 62% 0.00in /  0mm
15:39 84.4 °F /  29.1 °C 69.5 °F /  20.8 °C 29.98in /  1015.1hPa SSW 7.0mph /  11.3km/h 14.0mph /  22.5km/h 61% 0.00in /  0mm
15:44 84.4 °F /  29.1 °C 70.4 °F /  21.3 °C 29.98in /  1015.1hPa WSW 7.0mph /  11.3km/h 14.0mph /  22.5km/h 63% 0.00in /  0mm
15:49 84.4 °F /  29.1 °C 70.4 °F /  21.3 °C 29.98in /  1015.1hPa WSW 7.0mph /  11.3km/h 14.0mph /  22.5km/h 63% 0.00in /  0mm
15:54 85.0 °F /  29.4 °C 71.0 °F /  21.7 °C 29.98in /  1015.1hPa SW 6.0mph /  9.7km/h 14.0mph /  22.5km/h 63% 0.00in /  0mm
15:59 84.6 °F /  29.2 °C 70.6 °F /  21.4 °C 29.98in /  1015.1hPa SW 6.0mph /  9.7km/h 13.0mph /  20.9km/h 63% 0.00in /  0mm
16:04 85.2 °F /  29.6 °C 70.2 °F /  21.2 °C 29.98in /  1015.1hPa WSW 4.0mph /  6.4km/h 11.0mph /  17.7km/h 61% 0.00in /  0mm
16:09 84.7 °F /  29.3 °C 69.8 °F /  21 °C 29.98in /  1015.1hPa WSW 8.0mph /  12.9km/h 10.0mph /  16.1km/h 61% 0.00in /  0mm
16:14 84.2 °F /  29 °C 69.8 °F /  21 °C 29.98in /  1015.1hPa West 6.0mph /  9.7km/h 13.0mph /  20.9km/h 62% 0.00in /  0mm
16:19 84.1 °F /  28.9 °C 69.2 °F /  20.7 °C 29.98in /  1015.1hPa WSW 7.0mph /  11.3km/h 15.0mph /  24.1km/h 61% 0.00in /  0mm
16:24 84.3 °F /  29.1 °C 70.3 °F /  21.3 °C 29.98in /  1015.1hPa WSW 7.0mph /  11.3km/h 15.0mph /  24.1km/h 63% 0.00in /  0mm
16:29 84.3 °F /  29.1 °C 69.9 °F /  21.1 °C 29.98in /  1015.1hPa WSW 5.0mph /  8km/h 12.0mph /  19.3km/h 62% 0.00in /  0mm
16:34 83.8 °F /  28.8 °C 69.9 °F /  21.1 °C 29.98in /  1015.1hPa SW 4.0mph /  6.4km/h 11.0mph /  17.7km/h 63% 0.00in /  0mm
16:39 83.4 °F /  28.6 °C 69.9 °F /  21.1 °C 29.99in /  1015.5hPa WSW 5.0mph /  8km/h 12.0mph /  19.3km/h 64% 0.00in /  0mm
16:44 83.3 °F /  28.5 °C 69.4 °F /  20.8 °C 29.99in /  1015.5hPa WSW 5.0mph /  8km/h 12.0mph /  19.3km/h 63% 0.00in /  0mm
16:49 82.5 °F /  28.1 °C 69.5 °F /  20.8 °C 30.00in /  1015.8hPa WSW 6.0mph /  9.7km/h 12.0mph /  19.3km/h 65% 0.00in /  0mm
16:54 82.6 °F /  28.1 °C 70.1 °F /  21.2 °C 30.00in /  1015.8hPa WSW 5.0mph /  8km/h 12.0mph /  19.3km/h 66% 0.00in /  0mm
16:59 82.2 °F /  27.9 °C 69.7 °F /  20.9 °C 30.00in /  1015.8hPa SW 5.0mph /  8km/h 12.0mph /  19.3km/h 66% 0.00in /  0mm
17:04 82.3 °F /  27.9 °C 70.2 °F /  21.2 °C 30.00in /  1015.8hPa West 3.0mph /  4.8km/h 8.0mph /  12.9km/h 67% 0.00in /  0mm
17:09 83.0 °F /  28.3 °C 70.5 °F /  21.4 °C 29.98in /  1015.1hPa SSW 5.0mph /  8km/h 10.0mph /  16.1km/h 66% 0.00in /  0mm
17:14 83.4 °F /  28.6 °C 70.4 °F /  21.3 °C 29.99in /  1015.5hPa WSW 5.0mph /  8km/h 10.0mph /  16.1km/h 65% 0.00in /  0mm
17:19 83.8 °F /  28.8 °C 71.2 °F /  21.8 °C 29.98in /  1015.1hPa WSW 5.0mph /  8km/h 12.0mph /  19.3km/h 66% 0.00in /  0mm
17:24 83.9 °F /  28.8 °C 70.4 °F /  21.3 °C 29.98in /  1015.1hPa WSW 5.0mph /  8km/h 10.0mph /  16.1km/h 64% 0.00in /  0mm
17:29 83.6 °F /  28.7 °C 70.1 °F /  21.2 °C 29.97in /  1014.8hPa SSW 5.0mph /  8km/h 12.0mph /  19.3km/h 64% 0.00in /  0mm
17:34 83.3 °F /  28.5 °C 70.3 °F /  21.3 °C 29.97in /  1014.8hPa WSW 9.0mph /  14.5km/h 13.0mph /  20.9km/h 65% 0.00in /  0mm
17:39 83.0 °F /  28.3 °C 70.5 °F /  21.4 °C 29.97in /  1014.8hPa SW 5.0mph /  8km/h 15.0mph /  24.1km/h 66% 0.00in /  0mm
17:44 82.7 °F /  28.2 °C 69.7 °F /  20.9 °C 29.97in /  1014.8hPa WSW 7.0mph /  11.3km/h 15.0mph /  24.1km/h 65% 0.00in /  0mm
17:49 82.3 °F /  27.9 °C 69.4 °F /  20.8 °C 29.97in /  1014.8hPa SW 7.0mph /  11.3km/h 16.0mph /  25.7km/h 65% 0.00in /  0mm
17:54 82.4 °F /  28 °C 69.9 °F /  21.1 °C 29.97in /  1014.8hPa WSW 7.0mph /  11.3km/h 14.0mph /  22.5km/h 66% 0.00in /  0mm
17:59 82.7 °F /  28.2 °C 69.7 °F /  20.9 °C 29.98in /  1015.1hPa WSW 7.0mph /  11.3km/h 13.0mph /  20.9km/h 65% 0.00in /  0mm
18:04 82.6 °F /  28.1 °C 70.1 °F /  21.2 °C 29.98in /  1015.1hPa West 6.0mph /  9.7km/h 11.0mph /  17.7km/h 66% 0.00in /  0mm
18:09 82.4 °F /  28 °C 69.9 °F /  21.1 °C 29.98in /  1015.1hPa WSW 6.0mph /  9.7km/h 13.0mph /  20.9km/h 66% 0.00in /  0mm
18:14 82.6 °F /  28.1 °C 70.5 °F /  21.4 °C 29.98in /  1015.1hPa WSW 6.0mph /  9.7km/h 13.0mph /  20.9km/h 67% 0.00in /  0mm
18:19 82.3 °F /  27.9 °C 70.2 °F /  21.2 °C 29.97in /  1014.8hPa WSW 6.0mph /  9.7km/h 12.0mph /  19.3km/h 67% 0.00in /  0mm
18:24 81.8 °F /  27.7 °C 70.2 °F /  21.2 °C 29.97in /  1014.8hPa WSW 6.0mph /  9.7km/h 14.0mph /  22.5km/h 68% 0.00in /  0mm
18:29 81.5 °F /  27.5 °C 70.3 °F /  21.3 °C 29.97in /  1014.8hPa West 4.0mph /  6.4km/h 12.0mph /  19.3km/h 69% 0.00in /  0mm
18:34 81.3 °F /  27.4 °C 70.2 °F /  21.2 °C 29.97in /  1014.8hPa WSW 6.0mph /  9.7km/h 12.0mph /  19.3km/h 69% 0.00in /  0mm
18:39 81.1 °F /  27.3 °C 70.4 °F /  21.3 °C 29.97in /  1014.8hPa WSW 5.0mph /  8km/h 11.0mph /  17.7km/h 70% 0.00in /  0mm
18:44 80.8 °F /  27.1 °C 70.1 °F /  21.2 °C 29.97in /  1014.8hPa WSW 6.0mph /  9.7km/h 12.0mph /  19.3km/h 70% 0.00in /  0mm
18:49 80.3 °F /  26.8 °C 70.0 °F /  21.1 °C 29.98in /  1015.1hPa WSW 6.0mph /  9.7km/h 14.0mph /  22.5km/h 71% 0.00in /  0mm
18:54 80.1 °F /  26.7 °C 69.8 °F /  21 °C 29.98in /  1015.1hPa WSW 4.0mph /  6.4km/h 12.0mph /  19.3km/h 71% 0.00in /  0mm
18:59 80.0 °F /  26.7 °C 70.2 °F /  21.2 °C 29.98in /  1015.1hPa SSW 5.0mph /  8km/h 9.0mph /  14.5km/h 72% 0.00in /  0mm
19:04 79.6 °F /  26.4 °C 70.2 °F /  21.2 °C 29.98in /  1015.1hPa WSW 6.0mph /  9.7km/h 13.0mph /  20.9km/h 73% 0.00in /  0mm
19:09 79.3 °F /  26.3 °C 69.9 °F /  21.1 °C 29.98in /  1015.1hPa SW 7.0mph /  11.3km/h 13.0mph /  20.9km/h 73% 0.00in /  0mm
19:14 79.2 °F /  26.2 °C 70.2 °F /  21.2 °C 29.97in /  1014.8hPa WSW 6.0mph /  9.7km/h 12.0mph /  19.3km/h 74% 0.00in /  0mm
19:19 78.9 °F /  26.1 °C 69.9 °F /  21.1 °C 29.97in /  1014.8hPa West 4.0mph /  6.4km/h 16.0mph /  25.7km/h 74% 0.00in /  0mm
19:24 78.8 °F /  26 °C 69.8 °F /  21 °C 29.97in /  1014.8hPa WSW 7.0mph /  11.3km/h 9.0mph /  14.5km/h 74% 0.00in /  0mm
19:29 78.7 °F /  25.9 °C 69.7 °F /  20.9 °C 29.98in /  1015.1hPa SW 3.0mph /  4.8km/h 11.0mph /  17.7km/h 74% 0.00in /  0mm
19:34 78.7 °F /  25.9 °C 69.7 °F /  20.9 °C 29.98in /  1015.1hPa WSW 5.0mph /  8km/h 10.0mph /  16.1km/h 74% 0.00in /  0mm
19:39 78.4 °F /  25.8 °C 69.8 °F /  21 °C 29.98in /  1015.1hPa WSW 5.0mph /  8km/h 11.0mph /  17.7km/h 75% 0.00in /  0mm
19:44 78.3 °F /  25.7 °C 69.7 °F /  20.9 °C 29.98in /  1015.1hPa WSW 5.0mph /  8km/h 12.0mph /  19.3km/h 75% 0.00in /  0mm
19:49 78.0 °F /  25.6 °C 69.4 °F /  20.8 °C 29.98in /  1015.1hPa WSW 5.0mph /  8km/h 12.0mph /  19.3km/h 75% 0.00in /  0mm
19:54 77.8 °F /  25.4 °C 69.6 °F /  20.9 °C 29.98in /  1015.1hPa WSW 1.0mph /  1.6km/h 9.0mph /  14.5km/h 76% 0.00in /  0mm
19:59 77.7 °F /  25.4 °C 69.5 °F /  20.8 °C 29.99in /  1015.5hPa WSW 5.0mph /  8km/h 10.0mph /  16.1km/h 76% 0.00in /  0mm
20:04 77.4 °F /  25.2 °C 68.9 °F /  20.5 °C 29.99in /  1015.5hPa WSW 5.0mph /  8km/h 11.0mph /  17.7km/h 75% 0.00in /  0mm
20:09 77.2 °F /  25.1 °C 68.7 °F /  20.4 °C 29.99in /  1015.5hPa West 4.0mph /  6.4km/h 9.0mph /  14.5km/h 75% 0.00in /  0mm
20:14 77.1 °F /  25.1 °C 68.9 °F /  20.5 °C 29.99in /  1015.5hPa SW 5.0mph /  8km/h 7.0mph /  11.3km/h 76% 0.00in /  0mm
20:19 77.0 °F /  25 °C 68.9 °F /  20.5 °C 29.99in /  1015.5hPa West 4.0mph /  6.4km/h 8.0mph /  12.9km/h 76% 0.00in /  0mm
20:24 76.8 °F /  24.9 °C 68.7 °F /  20.4 °C 29.99in /  1015.5hPa WSW 4.0mph /  6.4km/h 5.0mph /  8km/h 76% 0.00in /  0mm
20:29 76.7 °F /  24.8 °C 68.9 °F /  20.5 °C 29.99in /  1015.5hPa SW 2.0mph /  3.2km/h 7.0mph /  11.3km/h 77% 0.00in /  0mm
20:34 76.5 °F /  24.7 °C 68.7 °F /  20.4 °C 29.99in /  1015.5hPa SW 4.0mph /  6.4km/h 9.0mph /  14.5km/h 77% 0.00in /  0mm
20:39 76.3 °F /  24.6 °C 68.9 °F /  20.5 °C 29.99in /  1015.5hPa WSW 4.0mph /  6.4km/h 9.0mph /  14.5km/h 78% 0.00in /  0mm
20:44 76.1 °F /  24.5 °C 69.1 °F /  20.6 °C 29.99in /  1015.5hPa WSW 4.0mph /  6.4km/h 9.0mph /  14.5km/h 79% 0.00in /  0mm
20:49 76.0 °F /  24.4 °C 69.0 °F /  20.6 °C 29.99in /  1015.5hPa WSW 3.0mph /  4.8km/h 7.0mph /  11.3km/h 79% 0.00in /  0mm
20:54 75.8 °F /  24.3 °C 69.2 °F /  20.7 °C 29.99in /  1015.5hPa WSW 2.0mph /  3.2km/h 5.0mph /  8km/h 80% 0.00in /  0mm
20:59 75.7 °F /  24.3 °C 69.1 °F /  20.6 °C 29.99in /  1015.5hPa West 3.0mph /  4.8km/h 8.0mph /  12.9km/h 80% 0.00in /  0mm
21:04 75.6 °F /  24.2 °C 69.4 °F /  20.8 °C 29.99in /  1015.5hPa WSW 4.0mph /  6.4km/h 9.0mph /  14.5km/h 81% 0.00in /  0mm
21:09 75.4 °F /  24.1 °C 69.2 °F /  20.7 °C 29.99in /  1015.5hPa SW 4.0mph /  6.4km/h 9.0mph /  14.5km/h 81% 0.00in /  0mm
21:14 75.4 °F /  24.1 °C 69.2 °F /  20.7 °C 29.98in /  1015.1hPa WSW 3.0mph /  4.8km/h 8.0mph /  12.9km/h 81% 0.00in /  0mm
21:19 75.3 °F /  24.1 °C 69.4 °F /  20.8 °C 29.99in /  1015.5hPa WSW 2.0mph /  3.2km/h 8.0mph /  12.9km/h 82% 0.00in /  0mm
21:24 75.3 °F /  24.1 °C 69.4 °F /  20.8 °C 29.99in /  1015.5hPa SW 4.0mph /  6.4km/h 7.0mph /  11.3km/h 82% 0.00in /  0mm
21:29 75.2 °F /  24 °C 69.3 °F /  20.7 °C 29.99in /  1015.5hPa WSW 5.0mph /  8km/h 6.0mph /  9.7km/h 82% 0.00in /  0mm
21:34 75.2 °F /  24 °C 69.3 °F /  20.7 °C 29.99in /  1015.5hPa SW 4.0mph /  6.4km/h 9.0mph /  14.5km/h 82% 0.00in /  0mm
21:39 75.1 °F /  23.9 °C 69.2 °F /  20.7 °C 29.99in /  1015.5hPa SW 3.0mph /  4.8km/h 9.0mph /  14.5km/h 82% 0.00in /  0mm
21:44 75.0 °F /  23.9 °C 69.1 °F /  20.6 °C 29.99in /  1015.5hPa SW 3.0mph /  4.8km/h 7.0mph /  11.3km/h 82% 0.00in /  0mm
21:49 74.9 °F /  23.8 °C 69.4 °F /  20.8 °C 29.99in /  1015.5hPa SW 2.0mph /  3.2km/h 7.0mph /  11.3km/h 83% 0.00in /  0mm
21:54 74.9 °F /  23.8 °C 69.4 °F /  20.8 °C 29.99in /  1015.5hPa SSW 3.0mph /  4.8km/h 7.0mph /  11.3km/h 83% 0.00in /  0mm
21:59 74.8 °F /  23.8 °C 69.3 °F /  20.7 °C 29.99in /  1015.5hPa SW 5.0mph /  8km/h 7.0mph /  11.3km/h 83% 0.00in /  0mm
22:04 74.7 °F /  23.7 °C 69.5 °F /  20.8 °C 29.99in /  1015.5hPa SW 3.0mph /  4.8km/h 7.0mph /  11.3km/h 84% 0.00in /  0mm
22:09 74.8 °F /  23.8 °C 69.6 °F /  20.9 °C 29.99in /  1015.5hPa WSW 4.0mph /  6.4km/h 7.0mph /  11.3km/h 84% 0.00in /  0mm
22:14 74.8 °F /  23.8 °C 69.6 °F /  20.9 °C 29.99in /  1015.5hPa WSW 3.0mph /  4.8km/h 7.0mph /  11.3km/h 84% 0.00in /  0mm
22:19 74.7 °F /  23.7 °C 69.5 °F /  20.8 °C 30.00in /  1015.8hPa SW 4.0mph /  6.4km/h 6.0mph /  9.7km/h 84% 0.00in /  0mm
22:24 74.7 °F /  23.7 °C 69.5 °F /  20.8 °C 30.00in /  1015.8hPa SW 3.0mph /  4.8km/h 7.0mph /  11.3km/h 84% 0.00in /  0mm
22:29 74.6 °F /  23.7 °C 69.4 °F /  20.8 °C 30.00in /  1015.8hPa SW 3.0mph /  4.8km/h 5.0mph /  8km/h 84% 0.00in /  0mm
22:34 74.6 °F /  23.7 °C 69.4 °F /  20.8 °C 30.00in /  1015.8hPa SW 1.0mph /  1.6km/h 5.0mph /  8km/h 84% 0.00in /  0mm
22:39 74.5 °F /  23.6 °C 69.3 °F /  20.7 °C 30.00in /  1015.8hPa SW 2.0mph /  3.2km/h 6.0mph /  9.7km/h 84% 0.00in /  0mm
22:44 74.5 °F /  23.6 °C 69.3 °F /  20.7 °C 30.00in /  1015.8hPa SW 2.0mph /  3.2km/h 6.0mph /  9.7km/h 84% 0.00in /  0mm
22:49 74.4 °F /  23.6 °C 69.6 °F /  20.9 °C 30.00in /  1015.8hPa SW 1.0mph /  1.6km/h 4.0mph /  6.4km/h 85% 0.00in /  0mm
22:54 74.4 °F /  23.6 °C 69.6 °F /  20.9 °C 30.00in /  1015.8hPa WSW 2.0mph /  3.2km/h 7.0mph /  11.3km/h 85% 0.00in /  0mm
22:59 74.3 °F /  23.5 °C 69.5 °F /  20.8 °C 30.00in /  1015.8hPa SW 3.0mph /  4.8km/h 5.0mph /  8km/h 85% 0.00in /  0mm
23:04 74.2 °F /  23.4 °C 69.4 °F /  20.8 °C 30.00in /  1015.8hPa Calm   3.0mph /  4.8km/h 85% 0.00in /  0mm
23:09 74.1 °F /  23.4 °C 69.3 °F /  20.7 °C 30.00in /  1015.8hPa SW 1.0mph /  1.6km/h 3.0mph /  4.8km/h 85% 0.00in /  0mm
23:14 74.0 °F /  23.3 °C 69.5 °F /  20.8 °C 30.00in /  1015.8hPa Calm   4.0mph /  6.4km/h 86% 0.00in /  0mm
23:19 74.0 °F /  23.3 °C 69.2 °F /  20.7 °C 30.00in /  1015.8hPa Calm   4.0mph /  6.4km/h 85% 0.00in /  0mm
23:24 73.7 °F /  23.2 °C 69.2 °F /  20.7 °C 30.00in /  1015.8hPa Calm   2.0mph /  3.2km/h 86% 0.00in /  0mm
23:29 73.7 °F /  23.2 °C 69.2 °F /  20.7 °C 30.00in /  1015.8hPa Calm   3.0mph /  4.8km/h 86% 0.00in /  0mm
23:34 73.6 °F /  23.1 °C 69.2 °F /  20.7 °C 30.00in /  1015.8hPa Calm   3.0mph /  4.8km/h 86% 0.00in /  0mm
23:39 73.5 °F /  23.1 °C 69.1 °F /  20.6 °C 30.00in /  1015.8hPa Calm     86% 0.00in /  0mm
23:44 73.3 °F /  22.9 °C 69.2 °F /  20.7 °C 30.00in /  1015.8hPa Calm     87% 0.00in /  0mm
23:49 73.1 °F /  22.8 °C 69.0 °F /  20.6 °C 29.99in /  1015.5hPa Calm     87% 0.00in /  0mm
23:54 72.8 °F /  22.7 °C 68.7 °F /  20.4 °C 29.99in /  1015.5hPa Calm     87% 0.00in /  0mm
23:59 72.6 °F /  22.6 °C 68.8 °F /  20.4 °C 29.99in /  1015.5hPa Calm     88% 0.00in /  0mm
Buffalo, New York, USA
Compliments of Weather Underground - 2.5 mb